Time;durP1;ratioP1;P1;durP2;ratioP2;P2;SDS_P1;SDS_P2;PMS_P1;PMS_P2;Temp;Humidity;BMP_temperature;BMP_pressure;BME280_temperature;BME280_humidity;BME280_pressure;Samples;Min_cycle;Max_cycle;Signal;HPM_P1;HPM_P2
2022/11/22 00:03:04;;;;;;;161.70;54.60;;;;;;;2.60;95.80;99377.82;640004;1312;139402;-79
2022/11/22 00:18:08;;;;;;;133.60;45.30;;;;;;;2.62;96.47;99386.67;639516;1312;139346;-79
2022/11/22 00:33:11;;;;;;;168.60;54.40;;;;;;;2.72;96.35;99403.82;640321;1312;139141;-80
2022/11/22 00:48:15;;;;;;;122.00;48.60;;;;;;;2.74;96.60;99418.50;639912;1312;139346;-80
2022/11/22 01:03:18;;;;;;;150.40;60.80;;;;;;;2.73;97.56;99404.94;639642;1312;139914;-78
2022/11/22 01:18:21;;;;;;;149.90;52.70;;;;;;;2.72;97.84;99413.96;639382;1312;139438;-81
2022/11/22 01:33:25;;;;;;;132.90;42.90;;;;;;;2.71;98.14;99419.61;639667;1312;139241;-81
2022/11/22 01:48:37;;;;;;;158.80;52.80;;;;;;;2.75;98.94;99433.80;639527;1313;139348;-80
2022/11/22 02:03:45;;;;;;;120.30;42.20;;;;;;;2.80;99.87;99443.80;639196;1312;139324;-83
2022/11/22 02:18:48;;;;;;;137.80;45.50;;;;;;;2.80;100.00;99445.04;639004;1313;139728;-82
2022/11/22 02:33:51;;;;;;;132.50;43.60;;;;;;;2.77;100.00;99450.25;661654;1306;139184;-77
2022/11/22 02:48:59;;;;;;;118.00;41.40;;;;;;;2.76;100.00;99448.90;660313;1305;139182;-77
2022/11/22 03:04:03;;;;;;;148.20;53.90;;;;;;;2.72;100.00;99439.04;660070;1312;139494;-77
2022/11/22 03:19:07;;;;;;;129.80;43.50;;;;;;;2.76;100.00;99428.20;660235;1312;139119;-76
2022/11/22 03:34:11;;;;;;;117.30;44.60;;;;;;;2.75;100.00;99415.30;659937;1307;139047;-76
2022/11/22 03:49:14;;;;;;;145.40;54.10;;;;;;;2.85;100.00;99413.08;659948;1312;138960;-76
2022/11/22 04:04:18;;;;;;;141.60;52.00;;;;;;;2.85;100.00;99418.48;660210;1311;200152;-76
2022/11/22 04:19:22;;;;;;;128.30;41.10;;;;;;;2.98;100.00;99420.80;660216;1312;139730;-75
2022/11/22 04:34:25;;;;;;;113.20;37.40;;;;;;;2.94;100.00;99430.23;659780;1311;139553;-75
2022/11/22 04:49:29;;;;;;;146.90;50.90;;;;;;;2.95;100.00;99449.39;660171;1312;139539;-76
2022/11/22 05:04:33;;;;;;;112.00;40.20;;;;;;;3.02;100.00;99463.02;660181;1312;139357;-76
2022/11/22 05:19:36;;;;;;;128.40;45.40;;;;;;;3.06;100.00;99453.13;660036;1312;139153;-76
2022/11/22 05:34:39;;;;;;;147.80;46.70;;;;;;;3.04;100.00;99467.71;660080;1306;139466;-76
2022/11/22 05:49:44;;;;;;;141.70;46.50;;;;;;;2.76;100.00;99484.02;660230;1312;139082;-76
2022/11/22 06:04:48;;;;;;;141.20;47.00;;;;;;;2.55;100.00;99491.98;660904;1308;139779;-76
2022/11/22 06:19:51;;;;;;;128.10;43.50;;;;;;;2.62;100.00;99478.55;660793;1296;139135;-77
2022/11/22 06:34:54;;;;;;;119.50;40.60;;;;;;;2.63;100.00;99514.58;660654;1312;139642;-77
2022/11/22 06:49:58;;;;;;;106.50;39.40;;;;;;;2.53;100.00;99526.13;660929;1307;139271;-77
2022/11/22 07:05:02;;;;;;;95.40;36.20;;;;;;;2.56;100.00;99536.07;660747;1305;139206;-78
2022/11/22 07:20:25;;;;;;;113.10;48.20;;;;;;;2.64;100.00;99554.56;660907;1305;139048;-77
2022/11/22 07:35:28;;;;;;;161.60;54.80;;;;;;;2.71;100.00;99567.20;660813;1312;139136;-77
2022/11/22 07:50:32;;;;;;;131.90;45.60;;;;;;;2.87;100.00;99563.05;661017;1295;139463;-78
2022/11/22 08:05:36;;;;;;;302.80;97.40;;;;;;;2.93;100.00;99570.11;660897;1311;139331;-78
2022/11/22 08:20:39;;;;;;;146.30;55.00;;;;;;;2.96;100.00;99563.47;660714;1304;141706;-78
2022/11/22 08:35:43;;;;;;;99.50;41.20;;;;;;;3.14;100.00;99580.73;661999;1303;139410;-78
2022/11/22 08:50:52;;;;;;;130.20;48.30;;;;;;;3.13;100.00;99598.63;660954;1310;138846;-79
2022/11/22 09:06:03;;;;;;;125.10;47.90;;;;;;;3.24;100.00;99600.60;660769;1312;139279;-78
2022/11/22 09:21:27;;;;;;;182.80;52.70;;;;;;;3.45;100.00;99609.61;661154;1306;138887;-78
2022/11/22 09:36:31;;;;;;;125.60;44.10;;;;;;;3.70;100.00;99593.52;660653;1311;139410;-79
2022/11/22 09:51:46;;;;;;;137.20;43.40;;;;;;;4.25;100.00;99589.78;660756;1312;139437;-80
2022/11/22 10:06:55;;;;;;;99.10;35.90;;;;;;;4.30;100.00;99598.23;660700;1309;140169;-80
2022/11/22 11:34:32;;;;;;;173.60;53.90;;;;;;;3.05;100.00;99587.32;626919;1345;545156;-79
2022/11/22 11:49:36;;;;;;;158.00;53.40;;;;;;;4.21;100.00;99560.12;632317;1314;138273;-80
2022/11/22 12:04:51;;;;;;;189.50;63.70;;;;;;;4.36;100.00;99538.55;632188;1322;138681;-81
2022/11/22 12:20:24;;;;;;;361.90;143.30;;;;;;;4.27;100.00;99530.96;633312;1314;138248;-83
2022/11/22 12:35:41;;;;;;;251.30;87.30;;;;;;;4.15;100.00;99538.21;635541;1323;139472;-83
2022/11/22 12:50:52;;;;;;;256.40;83.80;;;;;;;3.96;100.00;99556.17;633540;1323;138638;-81
2022/11/22 13:05:58;;;;;;;121.30;41.90;;;;;;;3.87;100.00;99565.15;632596;1322;138343;-87
2022/11/22 13:21:32;;;;;;;185.40;61.60;;;;;;;3.72;100.00;99579.52;638323;1315;138634;-83
2022/11/22 13:36:37;;;;;;;289.60;98.50;;;;;;;3.58;100.00;99577.05;638484;1307;138178;-83
2022/11/22 13:51:53;;;;;;;519.60;208.10;;;;;;;3.58;100.00;99579.44;639021;1307;138269;-82
2022/11/22 14:07:09;;;;;;;639.70;246.90;;;;;;;3.47;100.00;99574.70;640265;1311;138887;-84
2022/11/22 14:22:40;;;;;;;449.10;126.80;;;;;;;3.42;100.00;99585.58;643843;1293;139226;-81
2022/11/22 14:37:56;;;;;;;209.20;67.90;;;;;;;3.40;100.00;99590.38;639637;1307;138989;-83
2022/11/22 14:53:49;;;;;;;227.50;63.60;;;;;;;3.39;100.00;99593.02;641986;1308;138489;-83
2022/11/22 15:09:21;;;;;;;174.50;57.80;;;;;;;3.40;100.00;99591.10;644186;1305;139207;-84
2022/11/22 15:24:54;;;;;;;226.10;80.30;;;;;;;3.44;100.00;99585.30;641486;1300;139080;-83
2022/11/22 15:40:20;;;;;;;157.30;57.50;;;;;;;3.43;100.00;99578.23;639848;1314;139027;-84
2022/11/22 15:56:25;;;;;;;150.00;54.50;;;;;;;3.42;100.00;99578.16;643298;1316;138737;-83
2022/11/22 16:11:54;;;;;;;167.60;53.70;;;;;;;3.41;100.00;99591.50;640113;1313;138936;-83
2022/11/22 16:27:04;;;;;;;153.10;50.80;;;;;;;3.44;100.00;99596.36;641556;1300;138607;-84
2022/11/22 16:42:08;;;;;;;190.50;54.50;;;;;;;3.40;100.00;99584.30;642880;1310;138648;-84
2022/11/22 16:57:14;;;;;;;131.80;40.30;;;;;;;3.38;100.00;99592.41;642251;1310;139332;-83
2022/11/22 17:12:23;;;;;;;105.90;40.40;;;;;;;3.35;100.00;99613.92;643491;1297;138996;-87
2022/11/22 17:27:35;;;;;;;191.60;53.60;;;;;;;3.30;100.00;99614.05;642257;1312;139264;-84
2022/11/22 17:42:39;;;;;;;152.00;46.50;;;;;;;3.27;100.00;99611.30;646482;1305;139066;-83
2022/11/22 17:57:43;;;;;;;188.90;60.60;;;;;;;3.27;100.00;99611.29;644554;1304;138842;-84
